sensor_id;sensor_type;location;lat;lon;timestamp;P1;durP1;ratioP1;P2;durP2;ratioP2
33403;SDS011;19751;40.274;18.268;2022-10-16T00:01:47;13.07;;;9.25;;
33403;SDS011;19751;40.274;18.268;2022-10-16T00:04:12;12.90;;;9.10;;
33403;SDS011;19751;40.274;18.268;2022-10-16T00:06:38;12.65;;;8.70;;
33403;SDS011;19751;40.274;18.268;2022-10-16T00:09:04;14.35;;;9.77;;
33403;SDS011;19751;40.274;18.268;2022-10-16T00:11:31;15.25;;;9.43;;
33403;SDS011;19751;40.274;18.268;2022-10-16T00:14:02;15.32;;;10.55;;
33403;SDS011;19751;40.274;18.268;2022-10-16T00:16:31;15.55;;;10.57;;
33403;SDS011;19751;40.274;18.268;2022-10-16T00:18:57;13.30;;;9.90;;
33403;SDS011;19751;40.274;18.268;2022-10-16T00:21:24;16.45;;;10.77;;
33403;SDS011;19751;40.274;18.268;2022-10-16T00:24:01;13.65;;;8.43;;
33403;SDS011;19751;40.274;18.268;2022-10-16T00:26:30;16.15;;;9.80;;
33403;SDS011;19751;40.274;18.268;2022-10-16T00:28:57;13.23;;;9.95;;
33403;SDS011;19751;40.274;18.268;2022-10-16T00:31:23;13.00;;;9.20;;
33403;SDS011;19751;40.274;18.268;2022-10-16T00:33:49;12.90;;;9.25;;
33403;SDS011;19751;40.274;18.268;2022-10-16T00:36:17;14.40;;;9.65;;
33403;SDS011;19751;40.274;18.268;2022-10-16T00:38:44;15.93;;;11.15;;
33403;SDS011;19751;40.274;18.268;2022-10-16T00:41:11;15.38;;;10.50;;
33403;SDS011;19751;40.274;18.268;2022-10-16T00:48:44;18.40;;;11.40;;
33403;SDS011;19751;40.274;18.268;2022-10-16T00:51:15;15.95;;;10.57;;
33403;SDS011;19751;40.274;18.268;2022-10-16T00:53:43;14.82;;;11.18;;
33403;SDS011;19751;40.274;18.268;2022-10-16T00:56:09;15.73;;;11.27;;
33403;SDS011;19751;40.274;18.268;2022-10-16T00:58:35;16.33;;;11.23;;
33403;SDS011;19751;40.274;18.268;2022-10-16T01:01:01;18.52;;;12.55;;
33403;SDS011;19751;40.274;18.268;2022-10-16T01:03:28;16.55;;;12.80;;
33403;SDS011;19751;40.274;18.268;2022-10-16T01:09:16;25.50;;;15.75;;
33403;SDS011;19751;40.274;18.268;2022-10-16T01:14:22;20.77;;;11.75;;
33403;SDS011;19751;40.274;18.268;2022-10-16T01:17:00;19.75;;;11.73;;
33403;SDS011;19751;40.274;18.268;2022-10-16T01:19:44;14.70;;;11.57;;
33403;SDS011;19751;40.274;18.268;2022-10-16T01:22:34;19.17;;;10.98;;
33403;SDS011;19751;40.274;18.268;2022-10-16T01:25:05;17.17;;;11.15;;
33403;SDS011;19751;40.274;18.268;2022-10-16T01:27:37;20.60;;;11.75;;
33403;SDS011;19751;40.274;18.268;2022-10-16T01:35:24;14.63;;;10.68;;
33403;SDS011;19751;40.274;18.268;2022-10-16T01:38:12;14.98;;;11.18;;
33403;SDS011;19751;40.274;18.268;2022-10-16T01:43:45;16.52;;;11.30;;
33403;SDS011;19751;40.274;18.268;2022-10-16T01:46:16;14.90;;;10.30;;
33403;SDS011;19751;40.274;18.268;2022-10-16T01:48:44;15.88;;;10.57;;
33403;SDS011;19751;40.274;18.268;2022-10-16T01:51:11;17.23;;;11.68;;
33403;SDS011;19751;40.274;18.268;2022-10-16T01:53:40;19.00;;;10.25;;
33403;SDS011;19751;40.274;18.268;2022-10-16T01:56:09;16.00;;;10.73;;
33403;SDS011;19751;40.274;18.268;2022-10-16T01:58:40;21.13;;;10.82;;
33403;SDS011;19751;40.274;18.268;2022-10-16T02:01:10;19.92;;;11.75;;
33403;SDS011;19751;40.274;18.268;2022-10-16T02:03:39;18.40;;;11.10;;
33403;SDS011;19751;40.274;18.268;2022-10-16T02:06:07;17.50;;;11.32;;
33403;SDS011;19751;40.274;18.268;2022-10-16T02:08:33;22.33;;;11.60;;
33403;SDS011;19751;40.274;18.268;2022-10-16T02:11:00;15.13;;;10.80;;
33403;SDS011;19751;40.274;18.268;2022-10-16T02:15:58;18.63;;;11.80;;
33403;SDS011;19751;40.274;18.268;2022-10-16T02:18:23;20.45;;;11.38;;
33403;SDS011;19751;40.274;18.268;2022-10-16T02:20:55;17.73;;;10.63;;
33403;SDS011;19751;40.274;18.268;2022-10-16T02:26:07;15.65;;;11.98;;
33403;SDS011;19751;40.274;18.268;2022-10-16T02:28:46;23.33;;;12.38;;
33403;SDS011;19751;40.274;18.268;2022-10-16T02:31:19;15.82;;;10.63;;
33403;SDS011;19751;40.274;18.268;2022-10-16T02:33:51;21.85;;;14.98;;
33403;SDS011;19751;40.274;18.268;2022-10-16T02:36:20;20.52;;;12.85;;
33403;SDS011;19751;40.274;18.268;2022-10-16T02:38:46;19.02;;;12.65;;
33403;SDS011;19751;40.274;18.268;2022-10-16T02:41:12;17.02;;;11.55;;
33403;SDS011;19751;40.274;18.268;2022-10-16T02:43:38;19.77;;;12.60;;
33403;SDS011;19751;40.274;18.268;2022-10-16T02:46:03;17.17;;;12.00;;
33403;SDS011;19751;40.274;18.268;2022-10-16T02:48:29;18.23;;;12.45;;
33403;SDS011;19751;40.274;18.268;2022-10-16T02:50:54;18.13;;;12.55;;
33403;SDS011;19751;40.274;18.268;2022-10-16T02:53:20;22.27;;;12.48;;
33403;SDS011;19751;40.274;18.268;2022-10-16T02:55:45;16.50;;;12.93;;
33403;SDS011;19751;40.274;18.268;2022-10-16T02:58:11;20.02;;;13.55;;
33403;SDS011;19751;40.274;18.268;2022-10-16T03:00:36;21.83;;;13.18;;
33403;SDS011;19751;40.274;18.268;2022-10-16T03:03:02;21.60;;;13.77;;
33403;SDS011;19751;40.274;18.268;2022-10-16T03:05:28;22.17;;;14.60;;
33403;SDS011;19751;40.274;18.268;2022-10-16T03:07:53;20.15;;;13.90;;
33403;SDS011;19751;40.274;18.268;2022-10-16T03:10:19;20.85;;;13.20;;
33403;SDS011;19751;40.274;18.268;2022-10-16T03:12:44;21.25;;;14.70;;
33403;SDS011;19751;40.274;18.268;2022-10-16T03:15:10;19.48;;;13.20;;
33403;SDS011;19751;40.274;18.268;2022-10-16T03:17:35;18.75;;;14.00;;
33403;SDS011;19751;40.274;18.268;2022-10-16T03:20:01;23.73;;;15.43;;
33403;SDS011;19751;40.274;18.268;2022-10-16T03:22:27;20.90;;;14.27;;
33403;SDS011;19751;40.274;18.268;2022-10-16T03:24:53;21.20;;;14.90;;
33403;SDS011;19751;40.274;18.268;2022-10-16T03:27:19;24.33;;;15.57;;
33403;SDS011;19751;40.274;18.268;2022-10-16T03:29:44;23.30;;;15.68;;
33403;SDS011;19751;40.274;18.268;2022-10-16T03:32:10;21.45;;;14.32;;
33403;SDS011;19751;40.274;18.268;2022-10-16T03:34:35;19.58;;;14.07;;
33403;SDS011;19751;40.274;18.268;2022-10-16T03:37:01;17.92;;;13.13;;
33403;SDS011;19751;40.274;18.268;2022-10-16T03:39:26;20.63;;;13.80;;
33403;SDS011;19751;40.274;18.268;2022-10-16T03:41:52;30.08;;;16.58;;
33403;SDS011;19751;40.274;18.268;2022-10-16T03:44:18;26.35;;;16.52;;
33403;SDS011;19751;40.274;18.268;2022-10-16T03:46:43;29.35;;;18.50;;
33403;SDS011;19751;40.274;18.268;2022-10-16T03:49:09;32.83;;;20.02;;
33403;SDS011;19751;40.274;18.268;2022-10-16T03:51:34;29.67;;;17.38;;
33403;SDS011;19751;40.274;18.268;2022-10-16T03:54:00;28.08;;;17.75;;
33403;SDS011;19751;40.274;18.268;2022-10-16T03:56:25;32.53;;;18.45;;
33403;SDS011;19751;40.274;18.268;2022-10-16T03:58:51;30.25;;;18.90;;
33403;SDS011;19751;40.274;18.268;2022-10-16T04:01:17;31.77;;;18.77;;
33403;SDS011;19751;40.274;18.268;2022-10-16T04:03:42;30.60;;;18.67;;
33403;SDS011;19751;40.274;18.268;2022-10-16T04:06:08;29.95;;;18.77;;
33403;SDS011;19751;40.274;18.268;2022-10-16T04:08:34;31.13;;;18.40;;
33403;SDS011;19751;40.274;18.268;2022-10-16T04:11:01;33.30;;;19.65;;
33403;SDS011;19751;40.274;18.268;2022-10-16T04:13:28;36.85;;;21.42;;
33403;SDS011;19751;40.274;18.268;2022-10-16T04:15:53;31.63;;;20.33;;
33403;SDS011;19751;40.274;18.268;2022-10-16T04:18:19;31.38;;;20.30;;
33403;SDS011;19751;40.274;18.268;2022-10-16T04:20:45;30.80;;;18.98;;
33403;SDS011;19751;40.274;18.268;2022-10-16T04:23:10;34.47;;;21.33;;
33403;SDS011;19751;40.274;18.268;2022-10-16T04:25:36;33.25;;;20.30;;
33403;SDS011;19751;40.274;18.268;2022-10-16T04:28:01;34.42;;;21.10;;
33403;SDS011;19751;40.274;18.268;2022-10-16T04:30:27;29.27;;;18.30;;
33403;SDS011;19751;40.274;18.268;2022-10-16T04:32:53;30.77;;;20.73;;
33403;SDS011;19751;40.274;18.268;2022-10-16T04:35:19;31.02;;;20.13;;
33403;SDS011;19751;40.274;18.268;2022-10-16T04:37:46;33.25;;;19.77;;
33403;SDS011;19751;40.274;18.268;2022-10-16T04:40:12;31.10;;;20.17;;
33403;SDS011;19751;40.274;18.268;2022-10-16T04:42:37;31.33;;;20.08;;
33403;SDS011;19751;40.274;18.268;2022-10-16T04:45:04;32.17;;;20.38;;
33403;SDS011;19751;40.274;18.268;2022-10-16T04:47:30;33.75;;;20.90;;
33403;SDS011;19751;40.274;18.268;2022-10-16T04:49:56;32.30;;;20.65;;
33403;SDS011;19751;40.274;18.268;2022-10-16T04:52:22;34.60;;;20.73;;
33403;SDS011;19751;40.274;18.268;2022-10-16T04:54:49;32.75;;;20.42;;
33403;SDS011;19751;40.274;18.268;2022-10-16T04:57:15;34.60;;;22.08;;
33403;SDS011;19751;40.274;18.268;2022-10-16T04:59:41;32.25;;;21.63;;
33403;SDS011;19751;40.274;18.268;2022-10-16T05:02:07;34.78;;;21.33;;
33403;SDS011;19751;40.274;18.268;2022-10-16T05:04:32;32.88;;;21.45;;
33403;SDS011;19751;40.274;18.268;2022-10-16T05:06:58;32.42;;;21.75;;
33403;SDS011;19751;40.274;18.268;2022-10-16T05:09:23;39.25;;;23.27;;
33403;SDS011;19751;40.274;18.268;2022-10-16T05:11:49;31.02;;;20.50;;
33403;SDS011;19751;40.274;18.268;2022-10-16T05:14:14;34.90;;;22.42;;
33403;SDS011;19751;40.274;18.268;2022-10-16T05:16:40;40.00;;;23.73;;
33403;SDS011;19751;40.274;18.268;2022-10-16T05:19:05;35.28;;;22.77;;
33403;SDS011;19751;40.274;18.268;2022-10-16T05:21:31;35.10;;;23.45;;
33403;SDS011;19751;40.274;18.268;2022-10-16T05:23:56;39.80;;;25.38;;
33403;SDS011;19751;40.274;18.268;2022-10-16T05:26:22;33.92;;;22.90;;
33403;SDS011;19751;40.274;18.268;2022-10-16T05:28:49;37.35;;;24.00;;
33403;SDS011;19751;40.274;18.268;2022-10-16T05:31:15;36.40;;;23.60;;
33403;SDS011;19751;40.274;18.268;2022-10-16T05:33:41;36.97;;;25.23;;
33403;SDS011;19751;40.274;18.268;2022-10-16T05:36:07;41.05;;;26.17;;
33403;SDS011;19751;40.274;18.268;2022-10-16T05:38:36;42.78;;;24.95;;
33403;SDS011;19751;40.274;18.268;2022-10-16T05:41:03;39.75;;;25.67;;
33403;SDS011;19751;40.274;18.268;2022-10-16T05:43:29;45.90;;;25.65;;
33403;SDS011;19751;40.274;18.268;2022-10-16T05:45:57;42.60;;;25.95;;
33403;SDS011;19751;40.274;18.268;2022-10-16T05:48:27;36.67;;;24.05;;
33403;SDS011;19751;40.274;18.268;2022-10-16T05:50:59;38.45;;;24.80;;
33403;SDS011;19751;40.274;18.268;2022-10-16T05:53:27;36.97;;;25.03;;
33403;SDS011;19751;40.274;18.268;2022-10-16T05:55:56;33.78;;;22.40;;
33403;SDS011;19751;40.274;18.268;2022-10-16T05:58:22;39.20;;;23.67;;
33403;SDS011;19751;40.274;18.268;2022-10-16T06:03:21;39.38;;;24.15;;
33403;SDS011;19751;40.274;18.268;2022-10-16T06:05:47;37.80;;;24.00;;
33403;SDS011;19751;40.274;18.268;2022-10-16T06:08:12;41.28;;;23.95;;
33403;SDS011;19751;40.274;18.268;2022-10-16T06:10:38;46.95;;;26.45;;
33403;SDS011;19751;40.274;18.268;2022-10-16T06:13:03;41.78;;;25.75;;
33403;SDS011;19751;40.274;18.268;2022-10-16T06:15:29;44.97;;;27.00;;
33403;SDS011;19751;40.274;18.268;2022-10-16T06:17:54;39.20;;;27.33;;
33403;SDS011;19751;40.274;18.268;2022-10-16T06:20:20;36.40;;;24.85;;
33403;SDS011;19751;40.274;18.268;2022-10-16T06:22:45;43.45;;;25.92;;
33403;SDS011;19751;40.274;18.268;2022-10-16T06:25:11;38.13;;;24.90;;
33403;SDS011;19751;40.274;18.268;2022-10-16T06:27:38;42.15;;;27.55;;
33403;SDS011;19751;40.274;18.268;2022-10-16T06:30:05;50.15;;;29.17;;
33403;SDS011;19751;40.274;18.268;2022-10-16T06:32:31;45.55;;;26.13;;
33403;SDS011;19751;40.274;18.268;2022-10-16T06:34:57;41.88;;;29.02;;
33403;SDS011;19751;40.274;18.268;2022-10-16T06:37:22;43.95;;;28.27;;
33403;SDS011;19751;40.274;18.268;2022-10-16T06:39:48;46.78;;;28.83;;
33403;SDS011;19751;40.274;18.268;2022-10-16T06:42:13;44.33;;;28.02;;
33403;SDS011;19751;40.274;18.268;2022-10-16T06:44:38;40.03;;;26.55;;
33403;SDS011;19751;40.274;18.268;2022-10-16T06:47:04;46.63;;;29.00;;
33403;SDS011;19751;40.274;18.268;2022-10-16T06:49:29;39.05;;;26.10;;
33403;SDS011;19751;40.274;18.268;2022-10-16T06:51:55;39.40;;;27.63;;
33403;SDS011;19751;40.274;18.268;2022-10-16T06:54:20;40.67;;;27.08;;
33403;SDS011;19751;40.274;18.268;2022-10-16T06:56:46;37.97;;;26.10;;
33403;SDS011;19751;40.274;18.268;2022-10-16T06:59:11;44.58;;;28.88;;
33403;SDS011;19751;40.274;18.268;2022-10-16T07:01:37;39.85;;;26.60;;
33403;SDS011;19751;40.274;18.268;2022-10-16T07:04:02;44.80;;;28.08;;
33403;SDS011;19751;40.274;18.268;2022-10-16T07:06:30;41.70;;;28.08;;
33403;SDS011;19751;40.274;18.268;2022-10-16T07:08:56;39.47;;;27.13;;
33403;SDS011;19751;40.274;18.268;2022-10-16T07:11:23;40.47;;;27.90;;
33403;SDS011;19751;40.274;18.268;2022-10-16T07:13:49;44.08;;;28.13;;
33403;SDS011;19751;40.274;18.268;2022-10-16T07:16:19;40.72;;;27.52;;
33403;SDS011;19751;40.274;18.268;2022-10-16T07:18:46;39.97;;;25.98;;
33403;SDS011;19751;40.274;18.268;2022-10-16T07:21:15;38.97;;;26.90;;
33403;SDS011;19751;40.274;18.268;2022-10-16T07:23:42;41.05;;;27.27;;
33403;SDS011;19751;40.274;18.268;2022-10-16T07:26:08;40.20;;;26.80;;
33403;SDS011;19751;40.274;18.268;2022-10-16T07:28:35;39.95;;;25.92;;
33403;SDS011;19751;40.274;18.268;2022-10-16T07:31:02;38.20;;;24.52;;
33403;SDS011;19751;40.274;18.268;2022-10-16T07:33:29;29.92;;;23.83;;
33403;SDS011;19751;40.274;18.268;2022-10-16T07:35:55;39.30;;;24.77;;
33403;SDS011;19751;40.274;18.268;2022-10-16T07:38:21;40.38;;;24.00;;
33403;SDS011;19751;40.274;18.268;2022-10-16T07:40:47;34.10;;;24.92;;
33403;SDS011;19751;40.274;18.268;2022-10-16T07:43:13;29.90;;;22.23;;
33403;SDS011;19751;40.274;18.268;2022-10-16T07:45:46;36.55;;;24.95;;
33403;SDS011;19751;40.274;18.268;2022-10-16T07:48:13;31.30;;;22.83;;
33403;SDS011;19751;40.274;18.268;2022-10-16T07:50:39;29.55;;;21.25;;
33403;SDS011;19751;40.274;18.268;2022-10-16T07:53:06;27.95;;;19.58;;
33403;SDS011;19751;40.274;18.268;2022-10-16T07:55:31;24.50;;;17.42;;
33403;SDS011;19751;40.274;18.268;2022-10-16T07:57:57;28.23;;;16.48;;
33403;SDS011;19751;40.274;18.268;2022-10-16T08:00:24;21.30;;;15.57;;
33403;SDS011;19751;40.274;18.268;2022-10-16T08:02:49;20.25;;;15.25;;
33403;SDS011;19751;40.274;18.268;2022-10-16T08:05:15;19.60;;;14.65;;
33403;SDS011;19751;40.274;18.268;2022-10-16T08:07:40;20.00;;;15.02;;
33403;SDS011;19751;40.274;18.268;2022-10-16T08:10:06;23.83;;;16.00;;
33403;SDS011;19751;40.274;18.268;2022-10-16T08:12:32;19.92;;;15.70;;
33403;SDS011;19751;40.274;18.268;2022-10-16T08:14:57;20.67;;;15.63;;
33403;SDS011;19751;40.274;18.268;2022-10-16T08:17:23;22.42;;;15.65;;
33403;SDS011;19751;40.274;18.268;2022-10-16T08:19:48;19.08;;;15.00;;
33403;SDS011;19751;40.274;18.268;2022-10-16T08:22:14;22.20;;;15.73;;
33403;SDS011;19751;40.274;18.268;2022-10-16T08:27:40;20.13;;;15.35;;
33403;SDS011;19751;40.274;18.268;2022-10-16T08:30:06;21.60;;;15.80;;
33403;SDS011;19751;40.274;18.268;2022-10-16T08:32:32;20.98;;;14.10;;
33403;SDS011;19751;40.274;18.268;2022-10-16T08:34:57;22.38;;;15.60;;
33403;SDS011;19751;40.274;18.268;2022-10-16T08:37:23;18.85;;;13.50;;
33403;SDS011;19751;40.274;18.268;2022-10-16T08:39:50;17.80;;;12.30;;
33403;SDS011;19751;40.274;18.268;2022-10-16T08:50:24;14.50;;;10.65;;
33403;SDS011;19751;40.274;18.268;2022-10-16T08:52:53;13.95;;;9.98;;
33403;SDS011;19751;40.274;18.268;2022-10-16T08:58:12;12.27;;;9.55;;
33403;SDS011;19751;40.274;18.268;2022-10-16T09:03:37;11.32;;;9.80;;
33403;SDS011;19751;40.274;18.268;2022-10-16T09:19:56;13.95;;;8.98;;
33403;SDS011;19751;40.274;18.268;2022-10-16T09:22:34;11.45;;;7.88;;
33403;SDS011;19751;40.274;18.268;2022-10-16T09:25:01;14.02;;;8.95;;
33403;SDS011;19751;40.274;18.268;2022-10-16T09:27:36;14.93;;;9.88;;
33403;SDS011;19751;40.274;18.268;2022-10-16T09:30:10;11.73;;;8.88;;
33403;SDS011;19751;40.274;18.268;2022-10-16T09:32:40;15.82;;;10.63;;
33403;SDS011;19751;40.274;18.268;2022-10-16T09:35:11;19.05;;;10.75;;
33403;SDS011;19751;40.274;18.268;2022-10-16T09:37:42;16.13;;;9.52;;
33403;SDS011;19751;40.274;18.268;2022-10-16T09:40:30;11.07;;;8.40;;
33403;SDS011;19751;40.274;18.268;2022-10-16T09:46:19;13.82;;;9.75;;
33403;SDS011;19751;40.274;18.268;2022-10-16T09:48:48;12.02;;;9.98;;
33403;SDS011;19751;40.274;18.268;2022-10-16T09:51:25;14.45;;;10.75;;
33403;SDS011;19751;40.274;18.268;2022-10-16T09:53:57;14.05;;;11.52;;
33403;SDS011;19751;40.274;18.268;2022-10-16T09:56:29;20.05;;;13.18;;
33403;SDS011;19751;40.274;18.268;2022-10-16T09:59:02;14.77;;;11.30;;
33403;SDS011;19751;40.274;18.268;2022-10-16T10:01:38;12.15;;;9.60;;
33403;SDS011;19751;40.274;18.268;2022-10-16T10:04:06;15.98;;;10.95;;
33403;SDS011;19751;40.274;18.268;2022-10-16T10:06:36;13.73;;;10.85;;
33403;SDS011;19751;40.274;18.268;2022-10-16T10:09:15;15.23;;;11.13;;
33403;SDS011;19751;40.274;18.268;2022-10-16T10:14:40;14.23;;;11.00;;
33403;SDS011;19751;40.274;18.268;2022-10-16T10:17:20;15.77;;;12.27;;
33403;SDS011;19751;40.274;18.268;2022-10-16T10:30:15;15.68;;;12.25;;
33403;SDS011;19751;40.274;18.268;2022-10-16T10:35:22;16.55;;;12.20;;
33403;SDS011;19751;40.274;18.268;2022-10-16T10:40:45;19.02;;;13.10;;
33403;SDS011;19751;40.274;18.268;2022-10-16T10:46:12;14.50;;;11.70;;
33403;SDS011;19751;40.274;18.268;2022-10-16T10:49:12;15.25;;;12.07;;
33403;SDS011;19751;40.274;18.268;2022-10-16T10:57:29;15.57;;;12.27;;
33403;SDS011;19751;40.274;18.268;2022-10-16T11:03:27;17.55;;;13.15;;
33403;SDS011;19751;40.274;18.268;2022-10-16T11:08:26;16.65;;;13.55;;
33403;SDS011;19751;40.274;18.268;2022-10-16T11:11:00;17.30;;;13.20;;
33403;SDS011;19751;40.274;18.268;2022-10-16T11:16:25;18.23;;;14.25;;
33403;SDS011;19751;40.274;18.268;2022-10-16T11:21:47;16.33;;;12.70;;
33403;SDS011;19751;40.274;18.268;2022-10-16T11:24:21;16.42;;;13.57;;
33403;SDS011;19751;40.274;18.268;2022-10-16T11:26:53;18.98;;;14.57;;
33403;SDS011;19751;40.274;18.268;2022-10-16T11:29:23;17.92;;;12.40;;
33403;SDS011;19751;40.274;18.268;2022-10-16T11:31:59;15.27;;;12.88;;
33403;SDS011;19751;40.274;18.268;2022-10-16T11:34:34;19.75;;;13.15;;
33403;SDS011;19751;40.274;18.268;2022-10-16T11:37:11;17.80;;;13.73;;
33403;SDS011;19751;40.274;18.268;2022-10-16T11:39:41;18.95;;;14.73;;
33403;SDS011;19751;40.274;18.268;2022-10-16T11:42:19;21.92;;;15.15;;
33403;SDS011;19751;40.274;18.268;2022-10-16T11:45:42;20.35;;;15.73;;
33403;SDS011;19751;40.274;18.268;2022-10-16T11:53:52;20.35;;;15.70;;
33403;SDS011;19751;40.274;18.268;2022-10-16T11:56:24;26.08;;;16.65;;
33403;SDS011;19751;40.274;18.268;2022-10-16T12:04:17;19.33;;;14.55;;
33403;SDS011;19751;40.274;18.268;2022-10-16T12:07:08;17.17;;;13.50;;
33403;SDS011;19751;40.274;18.268;2022-10-16T12:09:37;19.23;;;14.70;;
33403;SDS011;19751;40.274;18.268;2022-10-16T12:12:05;22.85;;;15.90;;
33403;SDS011;19751;40.274;18.268;2022-10-16T12:15:03;17.48;;;13.88;;
33403;SDS011;19751;40.274;18.268;2022-10-16T12:17:45;19.13;;;14.80;;
33403;SDS011;19751;40.274;18.268;2022-10-16T12:22:36;19.85;;;14.48;;
33403;SDS011;19751;40.274;18.268;2022-10-16T12:25:05;26.88;;;15.30;;
33403;SDS011;19751;40.274;18.268;2022-10-16T12:27:53;18.35;;;13.68;;
33403;SDS011;19751;40.274;18.268;2022-10-16T12:30:22;15.90;;;13.32;;
33403;SDS011;19751;40.274;18.268;2022-10-16T12:32:57;18.08;;;13.52;;
33403;SDS011;19751;40.274;18.268;2022-10-16T12:35:26;16.77;;;11.70;;
33403;SDS011;19751;40.274;18.268;2022-10-16T12:38:03;14.05;;;12.05;;
33403;SDS011;19751;40.274;18.268;2022-10-16T12:40:39;15.32;;;11.43;;
33403;SDS011;19751;40.274;18.268;2022-10-16T12:43:11;13.10;;;10.40;;
33403;SDS011;19751;40.274;18.268;2022-10-16T12:45:46;16.27;;;11.63;;
33403;SDS011;19751;40.274;18.268;2022-10-16T12:48:19;16.58;;;11.20;;
33403;SDS011;19751;40.274;18.268;2022-10-16T12:50:46;10.85;;;9.00;;
33403;SDS011;19751;40.274;18.268;2022-10-16T12:53:19;12.50;;;8.65;;
33403;SDS011;19751;40.274;18.268;2022-10-16T12:56:00;9.30;;;7.72;;
33403;SDS011;19751;40.274;18.268;2022-10-16T13:11:54;5.82;;;5.20;;
33403;SDS011;19751;40.274;18.268;2022-10-16T13:14:39;5.30;;;4.72;;
33403;SDS011;19751;40.274;18.268;2022-10-16T13:20:40;9.82;;;4.05;;
33403;SDS011;19751;40.274;18.268;2022-10-16T13:26:16;3.37;;;3.10;;
33403;SDS011;19751;40.274;18.268;2022-10-16T13:28:48;3.45;;;3.15;;
33403;SDS011;19751;40.274;18.268;2022-10-16T13:31:18;3.75;;;3.45;;
33403;SDS011;19751;40.274;18.268;2022-10-16T13:33:48;3.78;;;3.08;;
33403;SDS011;19751;40.274;18.268;2022-10-16T13:36:23;5.65;;;3.47;;
33403;SDS011;19751;40.274;18.268;2022-10-16T13:41:37;4.80;;;3.55;;
33403;SDS011;19751;40.274;18.268;2022-10-16T13:44:03;5.53;;;4.03;;
33403;SDS011;19751;40.274;18.268;2022-10-16T13:46:30;4.00;;;3.30;;
33403;SDS011;19751;40.274;18.268;2022-10-16T13:49:03;5.03;;;3.95;;
33403;SDS011;19751;40.274;18.268;2022-10-16T13:51:31;4.93;;;3.72;;
33403;SDS011;19751;40.274;18.268;2022-10-16T13:53:58;4.35;;;3.38;;
33403;SDS011;19751;40.274;18.268;2022-10-16T13:56:27;5.90;;;3.78;;
33403;SDS011;19751;40.274;18.268;2022-10-16T13:59:01;4.30;;;3.33;;
33403;SDS011;19751;40.274;18.268;2022-10-16T14:01:32;4.50;;;3.33;;
33403;SDS011;19751;40.274;18.268;2022-10-16T14:04:05;4.65;;;3.45;;
33403;SDS011;19751;40.274;18.268;2022-10-16T14:06:34;4.72;;;3.70;;
33403;SDS011;19751;40.274;18.268;2022-10-16T14:09:04;4.47;;;3.72;;
33403;SDS011;19751;40.274;18.268;2022-10-16T14:11:41;5.15;;;3.88;;
33403;SDS011;19751;40.274;18.268;2022-10-16T14:14:12;4.05;;;3.65;;
33403;SDS011;19751;40.274;18.268;2022-10-16T14:16:38;4.40;;;4.00;;
33403;SDS011;19751;40.274;18.268;2022-10-16T14:19:13;5.53;;;4.50;;
33403;SDS011;19751;40.274;18.268;2022-10-16T14:21:44;5.80;;;4.07;;
33403;SDS011;19751;40.274;18.268;2022-10-16T14:24:10;4.30;;;3.88;;
33403;SDS011;19751;40.274;18.268;2022-10-16T14:26:42;5.90;;;3.83;;
33403;SDS011;19751;40.274;18.268;2022-10-16T14:29:12;6.13;;;4.00;;
33403;SDS011;19751;40.274;18.268;2022-10-16T14:31:40;5.05;;;4.05;;
33403;SDS011;19751;40.274;18.268;2022-10-16T14:34:23;8.00;;;4.95;;
33403;SDS011;19751;40.274;18.268;2022-10-16T14:36:52;7.65;;;4.05;;
33403;SDS011;19751;40.274;18.268;2022-10-16T14:39:22;5.28;;;4.43;;
33403;SDS011;19751;40.274;18.268;2022-10-16T14:41:54;4.53;;;4.00;;
33403;SDS011;19751;40.274;18.268;2022-10-16T14:44:23;11.07;;;3.90;;
33403;SDS011;19751;40.274;18.268;2022-10-16T14:46:56;4.32;;;3.92;;
33403;SDS011;19751;40.274;18.268;2022-10-16T14:49:22;4.55;;;3.97;;
33403;SDS011;19751;40.274;18.268;2022-10-16T14:51:49;5.25;;;3.85;;
33403;SDS011;19751;40.274;18.268;2022-10-16T14:54:15;4.22;;;3.83;;
33403;SDS011;19751;40.274;18.268;2022-10-16T14:59:47;5.18;;;3.42;;
33403;SDS011;19751;40.274;18.268;2022-10-16T15:02:27;5.10;;;3.90;;
33403;SDS011;19751;40.274;18.268;2022-10-16T15:04:55;4.18;;;3.25;;
33403;SDS011;19751;40.274;18.268;2022-10-16T15:07:21;3.90;;;3.35;;
33403;SDS011;19751;40.274;18.268;2022-10-16T15:09:48;3.92;;;3.63;;
33403;SDS011;19751;40.274;18.268;2022-10-16T15:12:14;4.13;;;3.72;;
33403;SDS011;19751;40.274;18.268;2022-10-16T15:14:39;3.55;;;3.17;;
33403;SDS011;19751;40.274;18.268;2022-10-16T15:17:05;4.20;;;3.25;;
33403;SDS011;19751;40.274;18.268;2022-10-16T15:19:30;5.13;;;3.28;;
33403;SDS011;19751;40.274;18.268;2022-10-16T15:21:56;5.22;;;3.78;;
33403;SDS011;19751;40.274;18.268;2022-10-16T15:24:21;4.68;;;3.20;;
33403;SDS011;19751;40.274;18.268;2022-10-16T15:26:47;4.82;;;3.50;;
33403;SDS011;19751;40.274;18.268;2022-10-16T15:29:13;4.47;;;3.72;;
33403;SDS011;19751;40.274;18.268;2022-10-16T15:31:39;4.40;;;3.90;;
33403;SDS011;19751;40.274;18.268;2022-10-16T15:34:08;4.10;;;3.70;;
33403;SDS011;19751;40.274;18.268;2022-10-16T15:36:36;4.90;;;3.45;;
33403;SDS011;19751;40.274;18.268;2022-10-16T15:39:03;6.25;;;4.00;;
33403;SDS011;19751;40.274;18.268;2022-10-16T15:41:30;4.60;;;3.63;;
33403;SDS011;19751;40.274;18.268;2022-10-16T15:43:56;4.18;;;3.50;;
33403;SDS011;19751;40.274;18.268;2022-10-16T15:46:22;4.68;;;3.60;;
33403;SDS011;19751;40.274;18.268;2022-10-16T15:48:49;4.32;;;3.75;;
33403;SDS011;19751;40.274;18.268;2022-10-16T15:51:16;4.15;;;3.53;;
33403;SDS011;19751;40.274;18.268;2022-10-16T15:53:43;5.15;;;3.88;;
33403;SDS011;19751;40.274;18.268;2022-10-16T15:56:13;5.47;;;3.80;;
33403;SDS011;19751;40.274;18.268;2022-10-16T15:59:09;4.82;;;4.32;;
33403;SDS011;19751;40.274;18.268;2022-10-16T16:01:35;4.45;;;4.05;;
33403;SDS011;19751;40.274;18.268;2022-10-16T16:04:01;4.78;;;4.30;;
33403;SDS011;19751;40.274;18.268;2022-10-16T16:06:27;6.28;;;4.57;;
33403;SDS011;19751;40.274;18.268;2022-10-16T16:08:53;5.07;;;4.60;;
33403;SDS011;19751;40.274;18.268;2022-10-16T16:11:19;6.13;;;4.63;;
33403;SDS011;19751;40.274;18.268;2022-10-16T16:13:45;5.78;;;4.90;;
33403;SDS011;19751;40.274;18.268;2022-10-16T16:16:11;11.50;;;5.18;;
33403;SDS011;19751;40.274;18.268;2022-10-16T16:18:39;5.88;;;5.28;;
33403;SDS011;19751;40.274;18.268;2022-10-16T16:21:05;6.70;;;5.90;;
33403;SDS011;19751;40.274;18.268;2022-10-16T16:23:32;7.35;;;5.93;;
33403;SDS011;19751;40.274;18.268;2022-10-16T16:26:05;8.23;;;6.40;;
33403;SDS011;19751;40.274;18.268;2022-10-16T16:28:34;6.10;;;5.45;;
33403;SDS011;19751;40.274;18.268;2022-10-16T16:31:00;7.20;;;6.30;;
33403;SDS011;19751;40.274;18.268;2022-10-16T16:33:26;6.45;;;5.72;;
33403;SDS011;19751;40.274;18.268;2022-10-16T16:35:55;7.60;;;6.13;;
33403;SDS011;19751;40.274;18.268;2022-10-16T16:38:22;8.23;;;7.00;;
33403;SDS011;19751;40.274;18.268;2022-10-16T16:40:47;7.30;;;6.43;;
33403;SDS011;19751;40.274;18.268;2022-10-16T16:43:13;8.68;;;6.82;;
33403;SDS011;19751;40.274;18.268;2022-10-16T16:45:39;7.80;;;6.75;;